createdAt,value
2018-03-31T00:00:16.898Z,8.75
2018-03-31T00:01:16.907Z,8.69
2018-03-31T00:02:16.932Z,8.69
2018-03-31T00:03:16.952Z,8.75
2018-03-31T00:04:16.921Z,8.69
2018-03-31T00:05:16.900Z,8.69
2018-03-31T00:06:16.923Z,8.69
2018-03-31T00:07:16.941Z,8.69
2018-03-31T00:08:16.905Z,8.63
2018-03-31T00:09:16.896Z,8.69
2018-03-31T00:10:16.887Z,8.69
2018-03-31T00:11:16.890Z,8.63
2018-03-31T00:12:16.895Z,8.69
2018-03-31T00:13:16.880Z,8.69
2018-03-31T00:14:16.888Z,8.63
2018-03-31T00:15:16.910Z,8.63
2018-03-31T00:16:24.123Z,8.63
2018-03-31T00:17:16.902Z,8.63
2018-03-31T00:18:16.894Z,8.63
2018-03-31T00:19:16.884Z,8.63
2018-03-31T00:20:16.878Z,8.63
2018-03-31T00:21:16.926Z,8.63
2018-03-31T00:22:16.917Z,8.63
2018-03-31T00:23:16.875Z,8.63
2018-03-31T00:24:16.882Z,8.63
2018-03-31T00:25:16.887Z,8.63
2018-03-31T00:26:16.895Z,8.69
2018-03-31T00:27:16.890Z,8.63
2018-03-31T00:28:16.868Z,8.63
2018-03-31T00:29:16.919Z,8.63
2018-03-31T00:30:16.864Z,8.63
2018-03-31T00:31:16.876Z,8.56
2018-03-31T00:32:16.894Z,8.56
2018-03-31T00:33:16.909Z,8.56
2018-03-31T00:34:16.885Z,8.56
2018-03-31T00:35:16.939Z,8.56
2018-03-31T00:36:16.870Z,8.5
2018-03-31T00:37:16.885Z,8.56
2018-03-31T00:38:16.886Z,8.5
2018-03-31T00:39:16.875Z,8.5
2018-03-31T00:40:16.853Z,8.5
2018-03-31T00:41:16.859Z,8.5
2018-03-31T00:42:16.901Z,8.5
2018-03-31T00:43:16.876Z,8.5
2018-03-31T00:44:16.870Z,8.5
2018-03-31T00:45:16.877Z,8.5
2018-03-31T00:46:16.872Z,8.5
2018-03-31T00:47:16.920Z,8.44
2018-03-31T00:48:16.866Z,8.44
2018-03-31T00:49:16.942Z,8.44
2018-03-31T00:50:16.870Z,8.38
2018-03-31T00:51:16.854Z,8.38
2018-03-31T00:52:16.865Z,8.38
2018-03-31T00:53:16.927Z,8.38
2018-03-31T00:54:16.926Z,8.38
2018-03-31T00:55:16.860Z,8.38
2018-03-31T00:56:16.889Z,8.38
2018-03-31T00:57:16.859Z,8.38
2018-03-31T00:58:16.893Z,8.38
2018-03-31T00:59:16.879Z,8.38
2018-03-31T01:00:16.858Z,8.44
2018-03-31T01:01:16.886Z,8.38
2018-03-31T01:02:16.882Z,8.44
2018-03-31T01:03:16.902Z,8.44
2018-03-31T01:04:16.866Z,8.44
2018-03-31T01:05:16.845Z,8.44
2018-03-31T01:06:16.911Z,8.38
2018-03-31T01:07:16.917Z,8.44
2018-03-31T01:08:16.865Z,8.44
2018-03-31T01:09:16.846Z,8.44
2018-03-31T01:10:16.865Z,8.44
2018-03-31T01:11:16.861Z,8.44
2018-03-31T01:12:16.865Z,8.44
2018-03-31T01:13:16.881Z,8.44
2018-03-31T01:14:16.859Z,8.5
2018-03-31T01:15:16.900Z,8.44
2018-03-31T01:16:16.863Z,8.5
2018-03-31T01:17:16.861Z,8.44
2018-03-31T01:18:16.900Z,8.44
2018-03-31T01:19:16.843Z,8.44
2018-03-31T01:20:16.863Z,8.44
2018-03-31T01:21:16.854Z,8.44
2018-03-31T01:22:16.862Z,8.38
2018-03-31T01:23:16.845Z,8.44
2018-03-31T01:24:16.865Z,8.44
2018-03-31T01:25:16.837Z,8.44
2018-03-31T01:26:16.846Z,8.44
2018-03-31T01:27:16.839Z,8.38
2018-03-31T01:28:16.842Z,8.44
2018-03-31T01:29:16.852Z,8.44
2018-03-31T01:30:16.858Z,8.44
2018-03-31T01:31:16.883Z,8.44
2018-03-31T01:32:16.837Z,8.44
2018-03-31T01:33:16.820Z,8.44
2018-03-31T01:34:16.848Z,8.44
2018-03-31T01:35:16.844Z,8.44
2018-03-31T01:36:16.837Z,8.38
2018-03-31T01:37:16.848Z,8.44
2018-03-31T01:38:16.839Z,8.44
2018-03-31T01:39:16.837Z,8.44
2018-03-31T01:40:16.832Z,8.44
2018-03-31T01:41:16.840Z,8.44
2018-03-31T01:42:16.847Z,8.44
2018-03-31T01:43:16.843Z,8.38
2018-03-31T01:44:16.880Z,8.38
2018-03-31T01:45:16.848Z,8.44
2018-03-31T01:46:16.922Z,8.38
2018-03-31T01:47:16.826Z,8.38
2018-03-31T01:48:16.849Z,8.44
2018-03-31T01:49:16.956Z,8.38
2018-03-31T01:50:16.830Z,8.44
2018-03-31T01:51:16.856Z,8.38
2018-03-31T01:52:16.822Z,8.38
2018-03-31T01:53:16.832Z,8.38
2018-03-31T01:54:16.844Z,8.38
2018-03-31T01:55:16.845Z,8.38
2018-03-31T01:56:16.845Z,8.38
2018-03-31T01:57:16.823Z,8.38
2018-03-31T01:58:16.853Z,8.44
2018-03-31T01:59:16.837Z,8.38
2018-03-31T02:00:16.825Z,8.38
2018-03-31T02:01:16.842Z,8.38
2018-03-31T02:02:16.850Z,8.38
2018-03-31T02:03:16.812Z,8.38
2018-03-31T02:04:16.847Z,8.38
2018-03-31T02:05:16.825Z,8.38
2018-03-31T02:06:16.809Z,8.38
2018-03-31T02:07:16.834Z,8.38
2018-03-31T02:08:16.821Z,8.38
2018-03-31T02:09:16.817Z,8.31
2018-03-31T02:10:16.840Z,8.31
2018-03-31T02:11:16.821Z,8.31
2018-03-31T02:12:16.829Z,8.31
2018-03-31T02:13:16.820Z,8.25
2018-03-31T02:14:16.832Z,8.31
2018-03-31T02:15:16.826Z,8.25
2018-03-31T02:16:16.854Z,8.25
2018-03-31T02:17:17.220Z,8.25
2018-03-31T02:18:16.827Z,8.25
2018-03-31T02:19:16.832Z,8.19
2018-03-31T02:20:17.006Z,8.25
2018-03-31T02:21:16.838Z,8.25
2018-03-31T02:22:16.858Z,8.19
2018-03-31T02:23:16.881Z,8.25
2018-03-31T02:24:16.838Z,8.19
2018-03-31T02:25:16.798Z,8.25
2018-03-31T02:26:16.851Z,8.25
2018-03-31T02:27:16.803Z,8.25
2018-03-31T02:28:16.806Z,8.25
2018-03-31T02:29:16.818Z,8.25
2018-03-31T02:30:16.846Z,8.25
2018-03-31T02:31:16.809Z,8.25
2018-03-31T02:32:16.817Z,8.25
2018-03-31T02:33:16.833Z,8.19
2018-03-31T02:34:16.807Z,8.25
2018-03-31T02:35:16.820Z,8.19
2018-03-31T02:36:16.836Z,8.25
2018-03-31T02:37:16.838Z,8.19
2018-03-31T02:38:16.832Z,8.19
2018-03-31T02:39:16.845Z,8.25
2018-03-31T02:40:16.864Z,8.19
2018-03-31T02:41:16.816Z,8.19
2018-03-31T02:42:16.828Z,8.19
2018-03-31T02:43:16.817Z,8.19
2018-03-31T02:44:16.793Z,8.19
2018-03-31T02:45:16.813Z,8.19
2018-03-31T02:46:16.829Z,8.19
2018-03-31T02:47:16.802Z,8.13
2018-03-31T02:48:16.803Z,8.19
2018-03-31T02:49:16.817Z,8.19
2018-03-31T02:50:16.834Z,8.19
2018-03-31T02:51:16.930Z,8.19
2018-03-31T02:52:16.810Z,8.13
2018-03-31T02:53:16.819Z,8.19
2018-03-31T02:54:16.801Z,8.13
2018-03-31T02:55:16.798Z,8.13
2018-03-31T02:56:16.814Z,8.13
2018-03-31T02:57:16.817Z,8.13
2018-03-31T02:58:16.777Z,8.13
2018-03-31T02:59:16.810Z,8.13
2018-03-31T03:00:16.802Z,8.13
2018-03-31T03:01:16.790Z,8.13
2018-03-31T03:02:16.825Z,8.13
2018-03-31T03:03:16.796Z,8.13
2018-03-31T03:04:16.802Z,8.13
2018-03-31T03:05:16.833Z,8.13
2018-03-31T03:06:16.885Z,8.13
2018-03-31T03:07:16.822Z,8.13
2018-03-31T03:08:16.787Z,8.06
2018-03-31T03:09:16.806Z,8.06
2018-03-31T03:10:16.790Z,8.06
2018-03-31T03:11:16.774Z,8.06
2018-03-31T03:12:16.820Z,8.06
2018-03-31T03:13:16.789Z,8.06
2018-03-31T03:14:16.798Z,8.06
2018-03-31T03:15:16.775Z,8
2018-03-31T03:16:16.780Z,8.06
2018-03-31T03:17:16.813Z,8.06
2018-03-31T03:18:16.792Z,8.06
2018-03-31T03:19:16.776Z,8.06
2018-03-31T03:20:16.771Z,8.06
2018-03-31T03:21:16.834Z,8.06
2018-03-31T03:22:16.823Z,8.06
2018-03-31T03:23:16.755Z,8.06
2018-03-31T03:24:16.781Z,8
2018-03-31T03:25:16.809Z,8.06
2018-03-31T03:26:16.786Z,8
2018-03-31T03:27:16.776Z,8.06
2018-03-31T03:28:16.771Z,8
2018-03-31T03:29:16.771Z,8
2018-03-31T03:30:16.799Z,7.94
2018-03-31T03:31:16.802Z,8
2018-03-31T03:32:16.812Z,8
2018-03-31T03:33:16.767Z,7.94
2018-03-31T03:34:16.757Z,7.94
2018-03-31T03:35:16.780Z,7.94
2018-03-31T03:36:16.754Z,8
2018-03-31T03:37:16.749Z,7.94
2018-03-31T03:38:16.782Z,7.94
2018-03-31T03:39:16.768Z,7.94
2018-03-31T03:40:16.769Z,7.94
2018-03-31T03:41:16.750Z,7.94
2018-03-31T03:42:16.805Z,7.87
2018-03-31T03:43:16.811Z,7.87
2018-03-31T03:44:16.749Z,7.87
2018-03-31T03:45:16.778Z,7.87
2018-03-31T03:46:16.765Z,7.87
2018-03-31T03:47:16.761Z,7.87
2018-03-31T03:48:16.793Z,7.87
2018-03-31T03:49:16.802Z,7.87
2018-03-31T03:50:16.812Z,7.87
2018-03-31T03:51:16.759Z,7.87
2018-03-31T03:52:16.992Z,7.87
2018-03-31T03:53:16.810Z,7.87
2018-03-31T03:54:16.758Z,7.87
2018-03-31T03:55:16.771Z,7.87
2018-03-31T03:56:16.776Z,7.87
2018-03-31T03:57:16.782Z,7.87
2018-03-31T03:58:16.769Z,7.81
2018-03-31T03:59:16.773Z,7.87
2018-03-31T04:00:16.773Z,7.81
2018-03-31T04:01:16.739Z,7.81
2018-03-31T04:02:16.935Z,7.81
2018-03-31T04:03:16.744Z,7.75
2018-03-31T04:04:16.760Z,7.69
2018-03-31T04:05:16.750Z,7.69
2018-03-31T04:06:16.765Z,7.75
2018-03-31T04:07:16.773Z,7.69
2018-03-31T04:08:16.781Z,7.69
2018-03-31T04:09:16.756Z,7.62
2018-03-31T04:10:16.760Z,7.69
2018-03-31T04:11:16.778Z,7.62
2018-03-31T04:12:16.769Z,7.62
2018-03-31T04:13:16.783Z,7.62
2018-03-31T04:14:16.768Z,7.62
2018-03-31T04:15:16.767Z,7.62
2018-03-31T04:16:16.782Z,7.62
2018-03-31T04:17:16.744Z,7.62
2018-03-31T04:18:16.746Z,7.62
2018-03-31T04:19:16.738Z,7.56
2018-03-31T04:20:16.768Z,7.56
2018-03-31T04:21:16.753Z,7.56
2018-03-31T04:22:16.751Z,7.56
2018-03-31T04:23:16.746Z,7.5
2018-03-31T04:24:16.844Z,7.5
2018-03-31T04:25:16.755Z,7.44
2018-03-31T04:26:16.757Z,7.44
2018-03-31T04:27:16.757Z,7.44
2018-03-31T04:28:16.763Z,7.44
2018-03-31T04:29:16.742Z,7.44
2018-03-31T04:30:16.746Z,7.37
2018-03-31T04:31:16.730Z,7.37
2018-03-31T04:32:16.734Z,7.37
2018-03-31T04:33:16.840Z,7.37
2018-03-31T04:34:16.762Z,7.31
2018-03-31T04:35:16.740Z,7.31
2018-03-31T04:36:16.757Z,7.37
2018-03-31T04:37:16.837Z,7.31
2018-03-31T04:38:16.745Z,7.31
2018-03-31T04:39:16.765Z,7.31
2018-03-31T04:40:16.784Z,7.31
2018-03-31T04:41:16.775Z,7.31
2018-03-31T04:42:16.764Z,7.31
2018-03-31T04:43:16.758Z,7.31
2018-03-31T04:44:16.752Z,7.31
2018-03-31T04:45:16.786Z,7.25
2018-03-31T04:46:16.782Z,7.19
2018-03-31T04:47:16.749Z,7.19
2018-03-31T04:48:16.732Z,7.19
2018-03-31T04:49:16.708Z,7.19
2018-03-31T04:50:17.077Z,7.19
2018-03-31T04:51:16.765Z,7.19
2018-03-31T04:52:16.729Z,7.12
2018-03-31T04:53:16.714Z,7.12
2018-03-31T04:54:16.744Z,7.12
2018-03-31T04:55:16.820Z,7.12
2018-03-31T04:56:16.720Z,7.12
2018-03-31T04:57:16.726Z,7.12
2018-03-31T04:58:17.139Z,7.12
2018-03-31T04:59:16.722Z,7.12
2018-03-31T05:00:16.746Z,7.12
2018-03-31T05:01:16.711Z,7.06
2018-03-31T05:02:16.827Z,7.06
2018-03-31T05:03:16.714Z,7.06
2018-03-31T05:04:16.729Z,7.06
2018-03-31T05:05:16.708Z,7.06
2018-03-31T05:06:16.726Z,7.06
2018-03-31T05:07:17.110Z,7.06
2018-03-31T05:08:16.703Z,7.06
2018-03-31T05:09:16.717Z,7
2018-03-31T05:10:16.703Z,7
2018-03-31T05:11:16.720Z,7
2018-03-31T05:12:16.808Z,7
2018-03-31T05:13:16.716Z,7
2018-03-31T05:14:16.723Z,7
2018-03-31T05:15:16.739Z,7
2018-03-31T05:16:16.706Z,7
2018-03-31T05:17:16.700Z,6.94
2018-03-31T05:18:16.743Z,6.94
2018-03-31T05:19:16.720Z,7
2018-03-31T05:20:16.719Z,6.94
2018-03-31T05:21:16.706Z,6.94
2018-03-31T05:22:16.739Z,6.94
2018-03-31T05:23:16.774Z,7
2018-03-31T05:24:16.734Z,6.94
2018-03-31T05:25:16.720Z,7
2018-03-31T05:26:16.768Z,6.94
2018-03-31T05:27:16.693Z,6.94
2018-03-31T05:28:16.684Z,6.94
2018-03-31T05:29:16.713Z,6.94
2018-03-31T05:30:16.699Z,6.94
2018-03-31T05:31:16.694Z,6.94
2018-03-31T05:32:16.706Z,6.94
2018-03-31T05:33:16.685Z,6.94
2018-03-31T05:34:16.696Z,6.94
2018-03-31T05:35:16.685Z,6.94
2018-03-31T05:36:16.710Z,6.94
2018-03-31T05:37:16.711Z,6.94
2018-03-31T05:38:16.683Z,6.87
2018-03-31T05:39:16.683Z,6.87
2018-03-31T05:40:16.710Z,6.87
2018-03-31T05:41:16.687Z,6.81
2018-03-31T05:42:16.712Z,6.81
2018-03-31T05:43:16.699Z,6.87
2018-03-31T05:44:16.717Z,6.87
2018-03-31T05:45:16.711Z,6.81
2018-03-31T05:46:16.737Z,6.81
2018-03-31T05:47:16.700Z,6.81
2018-03-31T05:48:16.688Z,6.87
2018-03-31T05:49:16.725Z,6.81
2018-03-31T05:50:16.670Z,6.81
2018-03-31T05:51:16.746Z,6.81
2018-03-31T05:52:16.693Z,6.81
2018-03-31T05:53:16.692Z,6.81
2018-03-31T05:54:16.690Z,6.87
2018-03-31T05:55:16.741Z,6.87
2018-03-31T05:56:16.711Z,6.81
2018-03-31T05:57:17.141Z,6.87
2018-03-31T05:58:16.683Z,6.87
2018-03-31T05:59:16.662Z,6.94
2018-03-31T06:00:16.716Z,6.87
2018-03-31T06:01:16.683Z,6.94
2018-03-31T06:02:16.744Z,6.87
2018-03-31T06:03:16.705Z,6.87
2018-03-31T06:04:16.662Z,6.94
2018-03-31T06:05:16.665Z,6.94
2018-03-31T06:06:16.664Z,6.94
2018-03-31T06:07:16.701Z,6.94
2018-03-31T06:08:16.717Z,6.94
2018-03-31T06:09:16.667Z,6.94
2018-03-31T06:10:16.662Z,7
2018-03-31T06:11:16.699Z,7
2018-03-31T06:12:16.670Z,7.06
2018-03-31T06:13:16.686Z,7.06
2018-03-31T06:14:16.680Z,7.06
2018-03-31T06:15:16.659Z,7.06
2018-03-31T06:16:16.652Z,7.12
2018-03-31T06:17:16.670Z,7.12
2018-03-31T06:18:16.652Z,7.12
2018-03-31T06:19:16.703Z,7.12
2018-03-31T06:20:16.700Z,7.12
2018-03-31T06:21:16.686Z,7.19
2018-03-31T06:22:16.646Z,7.19
2018-03-31T06:23:16.673Z,7.19
2018-03-31T06:24:16.662Z,7.25
2018-03-31T06:25:16.667Z,7.25
2018-03-31T06:26:16.671Z,7.25
2018-03-31T06:27:16.658Z,7.25
2018-03-31T06:28:16.706Z,7.31
2018-03-31T06:29:16.674Z,7.31
2018-03-31T06:30:16.652Z,7.31
2018-03-31T06:31:16.696Z,7.37
2018-03-31T06:32:16.658Z,7.37
2018-03-31T06:33:16.691Z,7.37
2018-03-31T06:34:16.656Z,7.37
2018-03-31T06:35:16.654Z,7.44
2018-03-31T06:36:16.641Z,7.44
2018-03-31T06:37:16.647Z,7.44
2018-03-31T06:38:16.660Z,7.5
2018-03-31T06:39:16.652Z,7.5
2018-03-31T06:40:16.705Z,7.5
2018-03-31T06:41:16.668Z,7.5
2018-03-31T06:42:16.661Z,7.56
2018-03-31T06:43:16.659Z,7.56
2018-03-31T06:44:16.655Z,7.56
2018-03-31T06:45:16.669Z,7.56
2018-03-31T06:46:16.638Z,7.56
2018-03-31T06:47:16.670Z,7.62
2018-03-31T06:48:16.657Z,7.62
2018-03-31T06:49:16.650Z,7.69
2018-03-31T06:50:16.651Z,7.62
2018-03-31T06:51:16.662Z,7.69
2018-03-31T06:52:16.665Z,7.69
2018-03-31T06:53:16.647Z,7.75
2018-03-31T06:54:16.693Z,7.69
2018-03-31T06:55:16.665Z,7.75
2018-03-31T06:56:16.664Z,7.75
2018-03-31T06:57:16.643Z,7.81
2018-03-31T06:58:16.904Z,7.81
2018-03-31T06:59:16.752Z,7.81
2018-03-31T07:00:16.629Z,7.87
2018-03-31T07:01:16.644Z,7.87
2018-03-31T07:02:16.640Z,7.87
2018-03-31T07:03:16.634Z,7.87
2018-03-31T07:04:16.692Z,7.87
2018-03-31T07:05:16.629Z,7.94
2018-03-31T07:06:16.779Z,7.94
2018-03-31T07:07:16.625Z,8
2018-03-31T07:08:16.636Z,8
2018-03-31T07:09:16.692Z,8
2018-03-31T07:10:16.619Z,8.06
2018-03-31T07:11:16.659Z,8.06
2018-03-31T07:12:16.653Z,8.06
2018-03-31T07:13:16.661Z,8.06
2018-03-31T07:14:16.631Z,8.13
2018-03-31T07:15:16.620Z,8.13
2018-03-31T07:16:16.643Z,8.13
2018-03-31T07:17:16.641Z,8.13
2018-03-31T07:18:16.621Z,8.13
2018-03-31T07:19:16.640Z,8.13
2018-03-31T07:20:16.626Z,8.13
2018-03-31T07:21:16.638Z,8.19
2018-03-31T07:22:17.123Z,8.19
2018-03-31T07:23:16.639Z,8.19
2018-03-31T07:24:16.626Z,8.19
2018-03-31T07:27:20.656Z,8.25
2018-03-31T07:28:16.658Z,8.31
2018-03-31T07:29:16.659Z,8.31
2018-03-31T07:30:16.742Z,8.31
2018-03-31T07:31:16.643Z,8.31
2018-03-31T07:32:16.645Z,8.31
2018-03-31T07:33:16.628Z,8.31
2018-03-31T07:34:16.627Z,8.31
2018-03-31T07:35:16.621Z,8.25
2018-03-31T07:36:16.643Z,8.19
2018-03-31T07:37:16.626Z,8.19
2018-03-31T07:38:16.669Z,8.19
2018-03-31T07:39:16.647Z,8.19
2018-03-31T07:40:16.636Z,8.19
2018-03-31T07:41:16.652Z,8.25
2018-03-31T07:42:16.624Z,8.31
2018-03-31T07:43:16.639Z,8.31
2018-03-31T07:44:16.625Z,8.44
2018-03-31T07:45:16.760Z,8.44
2018-03-31T07:46:16.606Z,8.44
2018-03-31T07:47:16.623Z,8.44
2018-03-31T07:48:16.621Z,8.5
2018-03-31T07:49:16.616Z,8.56
2018-03-31T07:50:16.621Z,8.5
2018-03-31T07:51:16.608Z,8.5
2018-03-31T07:52:16.699Z,8.5
2018-03-31T07:53:16.617Z,8.56
2018-03-31T07:54:16.621Z,8.5
2018-03-31T07:55:16.623Z,8.56
2018-03-31T07:56:16.620Z,8.56
2018-03-31T07:57:16.632Z,8.5
2018-03-31T07:58:16.603Z,8.56
2018-03-31T07:59:16.604Z,8.5
2018-03-31T08:00:16.607Z,8.56
2018-03-31T08:01:17.683Z,8.56
2018-03-31T08:02:16.739Z,8.56
2018-03-31T08:03:16.633Z,8.5
2018-03-31T08:04:16.622Z,8.44
2018-03-31T08:05:16.595Z,8.5
2018-03-31T08:06:16.599Z,8.5
2018-03-31T08:07:16.623Z,8.56
2018-03-31T08:08:16.603Z,8.63
2018-03-31T08:09:16.597Z,8.63
2018-03-31T08:10:16.635Z,8.63
2018-03-31T08:11:16.628Z,8.69
2018-03-31T08:12:16.641Z,8.75
2018-03-31T08:13:16.623Z,8.75
2018-03-31T08:14:16.613Z,8.81
2018-03-31T08:15:16.660Z,8.88
2018-03-31T08:16:16.687Z,8.88
2018-03-31T08:17:16.592Z,8.88
2018-03-31T08:18:16.609Z,8.94
2018-03-31T08:19:16.605Z,9
2018-03-31T08:20:16.606Z,9
2018-03-31T08:21:16.659Z,9
2018-03-31T08:22:16.609Z,8.94
2018-03-31T08:23:16.590Z,9
2018-03-31T08:24:16.647Z,9
2018-03-31T08:25:16.619Z,9
2018-03-31T08:26:16.599Z,9.06
2018-03-31T08:27:16.592Z,9.13
2018-03-31T08:28:16.583Z,9.19
2018-03-31T08:29:16.583Z,9.25
2018-03-31T08:30:16.937Z,9.25
2018-03-31T08:31:16.601Z,9.25
2018-03-31T08:32:16.603Z,9.19
2018-03-31T08:33:16.865Z,9.19
2018-03-31T08:34:16.599Z,9.06
2018-03-31T08:35:20.604Z,9.13
2018-03-31T08:36:16.593Z,9.13
2018-03-31T08:37:16.587Z,9.13
2018-03-31T08:38:16.627Z,9.19
2018-03-31T08:39:16.592Z,9.25
2018-03-31T08:40:17.471Z,9.25
2018-03-31T08:41:17.218Z,9.25
2018-03-31T08:42:16.599Z,9.25
2018-03-31T08:43:16.576Z,9.25
2018-03-31T08:44:17.322Z,9.31
2018-03-31T08:45:16.579Z,9.31
2018-03-31T08:46:16.575Z,9.38
2018-03-31T08:47:17.175Z,9.44
2018-03-31T08:48:16.587Z,9.38
2018-03-31T08:49:16.574Z,9.44
2018-03-31T08:50:16.573Z,9.44
2018-03-31T08:51:16.788Z,9.5
2018-03-31T08:52:16.614Z,9.5
2018-03-31T08:53:16.569Z,9.44
2018-03-31T08:54:16.570Z,9.44
2018-03-31T08:55:16.563Z,9.38
2018-03-31T08:56:16.653Z,9.44
2018-03-31T08:57:16.575Z,9.31
2018-03-31T08:58:16.568Z,9.38
2018-03-31T08:59:16.582Z,9.25
2018-03-31T09:00:17.652Z,9.31
2018-03-31T09:01:16.590Z,9.31
2018-03-31T09:02:16.592Z,9.38
2018-03-31T09:03:16.559Z,9.44
2018-03-31T09:04:17.307Z,9.44
2018-03-31T09:05:16.713Z,9.5
2018-03-31T09:06:16.861Z,9.56
2018-03-31T09:07:16.567Z,9.63
2018-03-31T09:08:16.586Z,9.5
2018-03-31T09:09:16.970Z,9.5
2018-03-31T09:10:17.267Z,9.5
2018-03-31T09:11:16.595Z,9.44
2018-03-31T09:12:16.559Z,9.44
2018-03-31T09:13:16.580Z,9.5
2018-03-31T09:14:16.669Z,9.56
2018-03-31T09:15:16.630Z,9.56
2018-03-31T09:16:16.596Z,9.56
2018-03-31T09:17:16.576Z,9.69
2018-03-31T09:18:16.552Z,9.75
2018-03-31T09:19:16.565Z,9.75
2018-03-31T09:20:16.585Z,9.69
2018-03-31T09:21:16.564Z,9.69
2018-03-31T09:22:16.560Z,9.69
2018-03-31T09:23:16.576Z,9.63
2018-03-31T09:24:16.551Z,9.69
2018-03-31T09:25:16.553Z,9.63
2018-03-31T09:26:16.616Z,9.69
2018-03-31T09:27:17.615Z,9.81
2018-03-31T09:28:18.036Z,9.88
2018-03-31T09:29:16.545Z,10
2018-03-31T09:30:16.620Z,10.06
2018-03-31T09:31:16.554Z,10.13
2018-03-31T09:32:16.546Z,10.13
2018-03-31T09:33:16.545Z,10.13
2018-03-31T09:34:16.559Z,10.06
2018-03-31T09:35:16.645Z,10.06
2018-03-31T09:36:16.565Z,10
2018-03-31T09:37:16.584Z,9.88
2018-03-31T09:38:16.565Z,9.88
2018-03-31T09:39:16.591Z,9.94
2018-03-31T09:40:16.563Z,10
2018-03-31T09:41:16.557Z,10
2018-03-31T09:42:16.545Z,10
2018-03-31T09:43:16.562Z,10
2018-03-31T09:44:16.600Z,9.94
2018-03-31T09:45:17.241Z,9.88
2018-03-31T09:46:16.559Z,9.88
2018-03-31T09:47:16.560Z,9.94
2018-03-31T09:48:16.572Z,9.88
2018-03-31T09:49:16.544Z,9.94
2018-03-31T09:50:16.520Z,10
2018-03-31T09:51:17.092Z,10.06
2018-03-31T09:52:16.539Z,10.06
2018-03-31T09:53:16.583Z,10.06
2018-03-31T09:54:16.676Z,10.13
2018-03-31T09:55:16.566Z,10.19
2018-03-31T09:56:16.541Z,10.25
2018-03-31T09:57:16.552Z,10.31
2018-03-31T09:58:16.557Z,10.31
2018-03-31T09:59:16.559Z,10.44
2018-03-31T10:00:16.527Z,10.38
2018-03-31T10:01:16.535Z,10.38
2018-03-31T10:02:16.547Z,10.25
2018-03-31T10:03:16.523Z,10.25
2018-03-31T10:04:16.565Z,10.25
2018-03-31T10:05:16.539Z,10.19
2018-03-31T10:06:16.591Z,10.19
2018-03-31T10:07:16.540Z,10.19
2018-03-31T10:08:16.538Z,10.19
2018-03-31T10:09:16.556Z,10.25
2018-03-31T10:10:16.524Z,10.25
2018-03-31T10:11:16.579Z,10.31
2018-03-31T10:12:16.546Z,10.31
2018-03-31T10:13:16.536Z,10.31
2018-03-31T10:14:16.520Z,10.38
2018-03-31T10:15:16.536Z,10.31
2018-03-31T10:16:16.738Z,10.38
2018-03-31T10:17:16.529Z,10.38
2018-03-31T10:18:16.585Z,10.38
2018-03-31T10:19:16.553Z,10.5
2018-03-31T10:20:16.528Z,10.63
2018-03-31T10:21:16.561Z,10.75
2018-03-31T10:22:16.641Z,10.75
2018-03-31T10:23:16.568Z,10.88
2018-03-31T10:24:16.584Z,10.88
2018-03-31T10:25:16.560Z,11
2018-03-31T10:26:16.549Z,11
2018-03-31T10:27:16.546Z,11.12
2018-03-31T10:28:16.533Z,11.31
2018-03-31T10:29:16.851Z,11.38
2018-03-31T10:30:16.513Z,11.31
2018-03-31T10:31:16.531Z,11.25
2018-03-31T10:32:16.519Z,11.19
2018-03-31T10:33:16.660Z,11.19
2018-03-31T10:34:16.524Z,11.19
2018-03-31T10:35:16.908Z,11.19
2018-03-31T10:36:16.545Z,11.19
2018-03-31T10:37:16.559Z,11.25
2018-03-31T10:38:16.543Z,11.25
2018-03-31T10:39:16.575Z,11.25
2018-03-31T10:40:16.529Z,11.25
2018-03-31T10:41:16.522Z,11.31
2018-03-31T10:42:16.517Z,11.38
2018-03-31T10:43:16.550Z,11.44
2018-03-31T10:44:16.572Z,11.44
2018-03-31T10:45:16.525Z,11.44
2018-03-31T10:46:16.529Z,11.56
2018-03-31T10:47:16.593Z,11.63
2018-03-31T10:48:16.509Z,11.56
2018-03-31T10:49:16.516Z,11.63
2018-03-31T10:50:16.545Z,11.56
2018-03-31T10:51:16.502Z,11.69
2018-03-31T10:52:16.540Z,11.69
2018-03-31T10:53:16.530Z,11.81
2018-03-31T10:54:16.500Z,11.94
2018-03-31T10:55:16.506Z,11.94
2018-03-31T10:56:16.554Z,12.06
2018-03-31T10:57:16.514Z,12
2018-03-31T10:58:16.575Z,12.06
2018-03-31T10:59:16.519Z,12.06
2018-03-31T11:00:16.836Z,12
2018-03-31T11:01:16.513Z,11.88
2018-03-31T11:02:16.525Z,11.81
2018-03-31T11:03:16.586Z,11.81
2018-03-31T11:04:16.522Z,11.69
2018-03-31T11:05:16.542Z,11.63
2018-03-31T11:06:16.520Z,11.56
2018-03-31T11:07:16.513Z,11.56
2018-03-31T11:08:16.595Z,11.63
2018-03-31T11:09:16.554Z,11.69
2018-03-31T11:10:16.537Z,11.75
2018-03-31T11:11:16.482Z,11.75
2018-03-31T11:12:16.477Z,11.81
2018-03-31T11:13:16.475Z,11.88
2018-03-31T11:14:16.525Z,11.94
2018-03-31T11:15:16.578Z,12
2018-03-31T11:16:16.479Z,11.94
2018-03-31T11:17:16.554Z,11.94
2018-03-31T11:18:16.495Z,11.94
2018-03-31T11:19:16.489Z,11.88
2018-03-31T11:20:16.496Z,11.75
2018-03-31T11:21:16.517Z,11.75
2018-03-31T11:22:16.504Z,11.75
2018-03-31T11:23:16.502Z,11.69
2018-03-31T11:24:16.504Z,11.88
2018-03-31T11:25:16.498Z,11.88
2018-03-31T11:26:16.494Z,11.94
2018-03-31T11:27:16.526Z,11.94
2018-03-31T11:28:16.502Z,11.94
2018-03-31T11:29:16.492Z,11.88
2018-03-31T11:30:16.507Z,12
2018-03-31T11:31:16.505Z,12.06
2018-03-31T11:32:16.788Z,12.06
2018-03-31T11:33:16.536Z,12
2018-03-31T11:34:16.478Z,12
2018-03-31T11:35:16.480Z,11.94
2018-03-31T11:36:16.552Z,12
2018-03-31T11:37:16.549Z,12.06
2018-03-31T11:38:16.528Z,12.13
2018-03-31T11:39:16.523Z,12.19
2018-03-31T11:40:16.521Z,12.25
2018-03-31T11:41:16.522Z,12.31
2018-03-31T11:42:16.537Z,12.37
2018-03-31T11:43:16.489Z,12.25
2018-03-31T11:44:16.468Z,12.31
2018-03-31T11:45:16.493Z,12.31
2018-03-31T11:46:16.472Z,12.37
2018-03-31T11:47:16.476Z,12.5
2018-03-31T11:48:16.588Z,12.56
2018-03-31T11:49:16.485Z,12.56
2018-03-31T11:50:16.472Z,12.44
2018-03-31T11:51:16.484Z,12.44
2018-03-31T11:52:16.542Z,12.44
2018-03-31T11:53:16.468Z,12.5
2018-03-31T11:54:16.485Z,12.69
2018-03-31T11:55:16.478Z,12.75
2018-03-31T11:56:16.498Z,12.81
2018-03-31T11:57:16.479Z,12.75
2018-03-31T11:58:16.466Z,12.75
2018-03-31T11:59:16.497Z,12.63
2018-03-31T12:00:16.481Z,12.56
2018-03-31T12:01:16.508Z,12.44
2018-03-31T12:02:16.535Z,12.5
2018-03-31T12:03:16.476Z,12.56
2018-03-31T12:04:16.490Z,12.56
2018-03-31T12:05:16.469Z,12.56
2018-03-31T12:06:16.487Z,12.44
2018-03-31T12:07:16.482Z,12.37
2018-03-31T12:08:16.456Z,12.44
2018-03-31T12:09:16.465Z,12.56
2018-03-31T12:10:16.537Z,12.63
2018-03-31T12:11:16.473Z,12.63
2018-03-31T12:12:16.470Z,12.75
2018-03-31T12:13:16.476Z,12.94
2018-03-31T12:14:16.464Z,13
2018-03-31T12:15:16.457Z,13.13
2018-03-31T12:16:16.471Z,13
2018-03-31T12:17:16.475Z,13.13
2018-03-31T12:18:16.506Z,13.19
2018-03-31T12:19:16.484Z,13.25
2018-03-31T12:20:16.502Z,13.19
2018-03-31T12:21:16.465Z,13.06
2018-03-31T12:22:16.458Z,13.13
2018-03-31T12:23:16.512Z,13.19
2018-03-31T12:24:16.472Z,13.19
2018-03-31T12:25:16.455Z,13.25
2018-03-31T12:26:16.501Z,13.19
2018-03-31T12:27:16.463Z,13.19
2018-03-31T12:28:16.473Z,13.25
2018-03-31T12:29:16.491Z,13.25
2018-03-31T12:30:16.493Z,13.25
2018-03-31T12:31:16.499Z,13.19
2018-03-31T12:32:16.481Z,13.13
2018-03-31T12:33:16.454Z,13
2018-03-31T12:34:16.452Z,12.94
2018-03-31T12:35:16.452Z,13
2018-03-31T12:36:16.454Z,12.88
2018-03-31T12:37:16.468Z,12.94
2018-03-31T12:38:16.540Z,12.88
2018-03-31T12:39:16.621Z,13
2018-03-31T12:40:16.472Z,13.19
2018-03-31T12:41:16.714Z,13.31
2018-03-31T12:42:16.470Z,13.44
2018-03-31T12:43:16.475Z,13.56
2018-03-31T12:44:16.463Z,13.69
2018-03-31T12:45:16.455Z,13.75
2018-03-31T12:46:16.476Z,13.69
2018-03-31T12:47:16.473Z,13.5
2018-03-31T12:48:16.425Z,13.38
2018-03-31T12:49:16.448Z,13.44
2018-03-31T12:50:16.455Z,13.5
2018-03-31T12:51:16.469Z,13.38
2018-03-31T12:52:16.866Z,13.44
2018-03-31T12:53:16.438Z,13.38
2018-03-31T12:54:16.442Z,13.44
2018-03-31T12:55:16.452Z,13.5
2018-03-31T12:56:16.453Z,13.5
2018-03-31T12:57:16.488Z,13.5
2018-03-31T12:58:16.442Z,13.5
2018-03-31T12:59:16.438Z,13.5
2018-03-31T13:00:16.448Z,13.5
2018-03-31T13:01:16.461Z,13.5
2018-03-31T13:02:16.477Z,13.56
2018-03-31T13:03:16.437Z,13.44
2018-03-31T13:04:16.444Z,13.38
2018-03-31T13:05:16.437Z,13.31
2018-03-31T13:06:16.423Z,13.44
2018-03-31T13:07:16.437Z,13.5
2018-03-31T13:08:16.434Z,13.44
2018-03-31T13:09:16.435Z,13.5
2018-03-31T13:10:16.432Z,13.62
2018-03-31T13:11:16.437Z,13.69
2018-03-31T13:12:16.505Z,13.81
2018-03-31T13:13:16.498Z,14
2018-03-31T13:14:16.426Z,13.81
2018-03-31T13:15:16.454Z,13.69
2018-03-31T13:16:16.757Z,13.81
2018-03-31T13:17:16.422Z,13.88
2018-03-31T13:18:16.421Z,13.81
2018-03-31T13:19:16.442Z,13.88